createdAt,value
2019-01-03T00:01:49.994Z,1.57
2019-01-03T00:06:39.336Z,2.00
2019-01-03T00:09:10.021Z,2.53
2019-01-03T00:14:13.106Z,1.43
2019-01-03T00:16:43.931Z,1.73
2019-01-03T00:21:47.007Z,2.60
2019-01-03T00:24:17.689Z,2.27
2019-01-03T00:26:53.722Z,1.93
2019-01-03T00:29:20.982Z,2.20
2019-01-03T00:32:13.540Z,2.57
2019-01-03T00:34:44.215Z,2.00
2019-01-03T00:37:14.902Z,2.30
2019-01-03T00:39:45.576Z,2.23
2019-01-03T00:42:16.268Z,2.67
2019-01-03T00:45:08.725Z,2.30
2019-01-03T00:47:39.433Z,2.33
2019-01-03T00:50:10.109Z,2.03
2019-01-03T00:52:40.825Z,3.00
2019-01-03T00:55:11.491Z,2.50
2019-01-03T00:57:42.208Z,3.07
2019-01-03T01:00:12.905Z,2.90
2019-01-03T01:02:43.609Z,3.10
2019-01-03T01:05:14.305Z,3.20
2019-01-03T01:07:44.989Z,2.60
2019-01-03T01:10:15.659Z,2.77
2019-01-03T01:12:46.353Z,2.67
2019-01-03T01:15:17.071Z,2.70
2019-01-03T01:17:47.805Z,2.83
2019-01-03T01:22:50.878Z,3.13
2019-01-03T01:25:21.590Z,3.00
2019-01-03T01:27:52.299Z,3.53
2019-01-03T01:30:23.066Z,3.20
2019-01-03T01:35:12.297Z,2.60
2019-01-03T01:37:42.969Z,3.33
2019-01-03T01:42:35.950Z,3.10
2019-01-03T01:47:29.009Z,3.10
2019-01-03T01:49:59.705Z,2.67
2019-01-03T01:52:30.390Z,2.77
2019-01-03T01:57:33.463Z,2.70
2019-01-03T02:00:04.151Z,3.13
2019-01-03T02:05:07.208Z,2.97
2019-01-03T02:07:37.998Z,3.43
2019-01-03T02:10:08.676Z,2.90
2019-01-03T02:14:57.864Z,3.10
2019-01-03T02:17:28.553Z,3.07
2019-01-03T02:22:31.686Z,2.10
2019-01-03T02:25:02.363Z,2.60
2019-01-03T02:27:33.087Z,3.03
2019-01-03T02:30:03.763Z,2.67
2019-01-03T02:32:34.446Z,2.53
2019-01-03T02:35:05.133Z,2.60
2019-01-03T02:37:35.847Z,2.80
2019-01-03T02:40:06.531Z,3.03
2019-01-03T02:44:59.366Z,3.20
2019-01-03T02:52:11.073Z,2.90
2019-01-03T02:54:41.750Z,2.33
2019-01-03T03:02:06.915Z,2.30
2019-01-03T03:04:37.620Z,3.00
2019-01-03T03:11:59.408Z,2.93
2019-01-03T03:14:43.145Z,2.80
2019-01-03T03:19:46.253Z,2.20
2019-01-03T03:25:09.464Z,2.50
2019-01-03T03:30:32.391Z,2.87
2019-01-03T03:33:03.101Z,3.33
2019-01-03T03:35:33.796Z,2.87
2019-01-03T03:40:36.850Z,2.87
2019-01-03T03:43:07.525Z,3.57
2019-01-03T03:47:56.833Z,2.90
2019-01-03T03:50:47.418Z,2.77
2019-01-03T03:53:18.125Z,2.97
2019-01-03T04:00:26.563Z,2.90
2019-01-03T04:03:17.135Z,2.47
2019-01-03T04:08:26.183Z,2.97
2019-01-03T04:10:56.878Z,3.10
2019-01-03T04:15:59.962Z,3.07
2019-01-03T04:18:30.639Z,3.00
2019-01-03T04:21:01.353Z,2.87
2019-01-03T04:23:51.911Z,3.47
2019-01-03T04:33:25.895Z,3.10
2019-01-03T04:35:56.584Z,3.23
2019-01-03T04:40:59.661Z,9.73
2019-01-03T04:43:30.321Z,5.13
2019-01-03T04:46:00.989Z,3.03
2019-01-03T04:48:31.693Z,2.97
2019-01-03T04:51:02.370Z,3.00
2019-01-03T04:53:33.054Z,3.00
2019-01-03T04:56:03.717Z,3.00
2019-01-03T04:58:34.418Z,3.07
2019-01-03T05:01:05.115Z,3.37
2019-01-03T05:03:35.804Z,3.83
2019-01-03T05:06:06.484Z,3.00
2019-01-03T05:08:37.166Z,3.03
2019-01-03T05:11:27.736Z,2.60
2019-01-03T05:13:58.457Z,2.70
2019-01-03T05:16:49.017Z,2.77
2019-01-03T05:19:19.731Z,2.80
2019-01-03T05:21:50.392Z,2.90
2019-01-03T05:24:21.086Z,2.80
2019-01-03T05:26:51.762Z,3.47
2019-01-03T05:29:22.478Z,3.03
2019-01-03T05:34:25.540Z,2.70
2019-01-03T05:39:48.615Z,2.90
2019-01-03T05:42:39.168Z,2.50
2019-01-03T05:47:48.210Z,2.47
2019-01-03T05:50:18.909Z,2.20
2019-01-03T05:52:49.610Z,2.67
2019-01-03T05:55:20.295Z,2.37
2019-01-03T06:01:03.117Z,2.77
2019-01-03T06:08:24.770Z,2.70
2019-01-03T06:10:55.489Z,2.47
2019-01-03T06:15:58.567Z,2.70
2019-01-03T06:21:21.510Z,4.70
2019-01-03T06:26:24.584Z,3.10
2019-01-03T06:28:55.298Z,3.70
2019-01-03T06:34:04.668Z,3.07
2019-01-03T06:41:26.235Z,4.67
2019-01-03T06:44:16.807Z,3.80
2019-01-03T06:49:39.724Z,3.50
2019-01-03T06:52:10.400Z,4.00
2019-01-03T06:54:41.098Z,2.93
2019-01-03T06:57:11.779Z,3.40
2019-01-03T06:59:42.488Z,4.03
2019-01-03T07:02:13.158Z,3.60
2019-01-03T07:04:43.875Z,4.03
2019-01-03T07:07:34.466Z,4.23
2019-01-03T07:10:05.140Z,3.83
2019-01-03T07:15:28.117Z,4.00
2019-01-03T07:20:31.302Z,3.23
2019-01-03T07:25:34.365Z,2.70
2019-01-03T07:28:05.042Z,3.33
2019-01-03T07:30:35.842Z,3.53
2019-01-03T07:33:06.504Z,3.23
2019-01-03T07:40:14.480Z,2.50
2019-01-03T07:42:45.155Z,3.43
2019-01-03T07:49:53.677Z,3.30
2019-01-03T07:52:24.364Z,3.53
2019-01-03T07:54:55.059Z,5.23
2019-01-03T07:57:25.798Z,5.37
2019-01-03T08:02:48.718Z,4.73
2019-01-03T08:05:19.436Z,4.73
2019-01-03T08:08:09.989Z,5.23
2019-01-03T08:15:21.934Z,4.60
2019-01-03T08:17:52.628Z,5.00
2019-01-03T08:20:45.119Z,4.97
2019-01-03T08:23:15.799Z,4.57
2019-01-03T08:28:18.839Z,5.13
2019-01-03T08:30:49.634Z,5.13
2019-01-03T08:33:20.333Z,4.03
2019-01-03T08:35:51.003Z,4.70
2019-01-03T08:38:21.705Z,5.87
2019-01-03T08:40:52.379Z,6.17
2019-01-03T08:43:27.036Z,5.80
2019-01-03T08:45:55.696Z,5.80
2019-01-03T08:50:44.872Z,4.83
2019-01-03T08:53:15.657Z,5.27
2019-01-03T08:55:46.340Z,4.90
2019-01-03T08:58:17.023Z,4.30
2019-01-03T09:00:47.694Z,4.53
2019-01-03T09:03:18.410Z,4.43
2019-01-03T09:05:49.107Z,4.37
2019-01-03T09:08:19.780Z,4.27
2019-01-03T09:13:12.718Z,4.80
2019-01-03T09:15:43.450Z,4.77
2019-01-03T09:20:46.518Z,3.73
2019-01-03T09:23:17.200Z,4.03
2019-01-03T09:25:56.584Z,3.73
2019-01-03T09:33:21.805Z,8.20
2019-01-03T09:38:14.983Z,7.47
2019-01-03T09:40:45.677Z,6.40
2019-01-03T09:43:16.345Z,7.07
2019-01-03T09:45:27.278Z,12.50
2019-01-03T09:47:38.071Z,12.13
2019-01-03T09:49:48.953Z,7.97
2019-01-03T09:51:59.751Z,7.30
2019-01-03T09:54:10.539Z,8.87
2019-01-03T09:56:21.369Z,7.47
2019-01-03T09:58:32.170Z,8.80
2019-01-03T10:00:43.002Z,9.03
2019-01-03T10:02:53.802Z,11.67
2019-01-03T10:05:04.921Z,15.77
2019-01-03T10:07:15.742Z,15.60
2019-01-03T10:09:26.525Z,14.07
2019-01-03T10:11:37.343Z,14.33
2019-01-03T10:13:48.184Z,15.60
2019-01-03T10:15:59.004Z,12.50
2019-01-03T10:18:09.817Z,9.90
2019-01-03T10:20:20.623Z,5.60
2019-01-03T10:22:31.460Z,4.17
2019-01-03T10:24:42.264Z,3.00
2019-01-03T10:26:53.090Z,3.90
2019-01-03T10:29:03.867Z,3.50
2019-01-03T10:31:14.706Z,2.77
2019-01-03T10:33:25.494Z,5.03
2019-01-03T10:35:36.310Z,6.10
2019-01-03T10:37:47.146Z,6.83
2019-01-03T10:39:57.942Z,5.87
2019-01-03T10:42:08.775Z,5.20
2019-01-03T10:44:19.578Z,2.50
2019-01-03T10:46:30.384Z,3.17
2019-01-03T10:48:41.206Z,2.83
2019-01-03T10:50:52.018Z,2.60
2019-01-03T10:53:02.855Z,2.43
2019-01-03T10:55:13.658Z,2.80
2019-01-03T10:57:24.470Z,2.60
2019-01-03T10:59:35.382Z,2.27
2019-01-03T11:01:46.200Z,2.67
2019-01-03T11:03:57.140Z,4.20
2019-01-03T11:06:07.960Z,3.73
2019-01-03T11:08:18.928Z,5.03
2019-01-03T11:10:29.752Z,9.57
2019-01-03T11:12:40.556Z,14.13
2019-01-03T11:14:51.389Z,9.73
2019-01-03T11:17:02.200Z,7.50
2019-01-03T11:19:13.020Z,6.43
2019-01-03T11:21:23.825Z,6.43
2019-01-03T11:23:34.626Z,5.70
2019-01-03T11:25:45.446Z,5.30
2019-01-03T11:27:56.251Z,6.57
2019-01-03T11:30:48.720Z,5.87
2019-01-03T11:32:59.527Z,5.17
2019-01-03T11:35:10.345Z,5.10
2019-01-03T11:37:21.164Z,4.30
2019-01-03T11:39:31.993Z,3.87
2019-01-03T11:41:42.805Z,4.40
2019-01-03T11:43:53.588Z,3.20
2019-01-03T11:46:04.509Z,3.57
2019-01-03T11:48:15.309Z,2.70
2019-01-03T11:50:26.141Z,2.70
2019-01-03T11:52:36.939Z,2.10
2019-01-03T11:54:47.731Z,2.63
2019-01-03T11:56:58.558Z,2.40
2019-01-03T11:59:09.367Z,2.37
2019-01-03T12:01:20.187Z,2.60
2019-01-03T12:03:30.976Z,3.20
2019-01-03T12:05:41.889Z,2.83
2019-01-03T12:07:52.701Z,3.07
2019-01-03T12:10:45.174Z,3.03
2019-01-03T12:12:55.976Z,2.67
2019-01-03T12:15:48.463Z,3.10
2019-01-03T12:17:59.274Z,2.70
2019-01-03T12:20:10.092Z,3.13
2019-01-03T12:22:20.934Z,2.70
2019-01-03T12:24:31.738Z,2.93
2019-01-03T12:26:42.533Z,3.10
2019-01-03T12:28:53.360Z,3.30
2019-01-03T12:31:04.307Z,3.40
2019-01-03T12:33:15.112Z,3.57
2019-01-03T12:35:25.919Z,3.03
2019-01-03T12:37:36.746Z,3.40
2019-01-03T12:39:47.541Z,3.37
2019-01-03T12:41:58.355Z,3.17
2019-01-03T12:44:09.151Z,3.93
2019-01-03T12:46:19.980Z,4.10
2019-01-03T12:48:30.803Z,4.40
2019-01-03T12:50:41.607Z,4.10
2019-01-03T12:52:52.417Z,3.93
2019-01-03T12:55:44.861Z,3.83
2019-01-03T12:57:55.685Z,4.17
2019-01-03T13:00:48.155Z,6.20
2019-01-03T13:02:58.964Z,5.10
2019-01-03T13:05:09.779Z,3.93
2019-01-03T13:07:20.572Z,3.97
2019-01-03T13:09:31.410Z,4.10
2019-01-03T13:11:42.194Z,4.03
2019-01-03T13:13:53.033Z,3.83
2019-01-03T13:16:03.840Z,4.30
2019-01-03T13:18:14.661Z,4.70
2019-01-03T13:20:25.456Z,4.77
2019-01-03T13:22:36.253Z,5.63
2019-01-03T13:24:47.085Z,5.93
2019-01-03T13:26:57.909Z,5.00
2019-01-03T13:29:08.887Z,3.93
2019-01-03T13:31:19.697Z,4.10
2019-01-03T13:33:30.512Z,3.73
2019-01-03T13:35:41.303Z,3.53
2019-01-03T13:37:52.137Z,3.80
2019-01-03T13:40:44.623Z,4.17
2019-01-03T13:42:55.436Z,4.27
2019-01-03T13:45:06.352Z,4.70
2019-01-03T13:47:17.169Z,3.73
2019-01-03T13:49:27.995Z,3.93
2019-01-03T13:51:38.804Z,4.27
2019-01-03T13:53:49.596Z,4.57
2019-01-03T13:56:00.440Z,5.67
2019-01-03T13:58:52.906Z,5.07
2019-01-03T14:01:03.917Z,5.30
2019-01-03T14:03:14.740Z,5.50
2019-01-03T14:05:25.586Z,5.13
2019-01-03T14:07:36.356Z,5.40
2019-01-03T14:09:47.193Z,5.63
2019-01-03T14:11:58.005Z,5.43
2019-01-03T14:14:08.813Z,4.97
2019-01-03T14:16:19.630Z,6.40
2019-01-03T14:18:30.447Z,6.43
2019-01-03T14:21:01.156Z,6.80
2019-01-03T14:23:11.963Z,6.47
2019-01-03T14:25:22.800Z,6.80
2019-01-03T14:27:33.632Z,7.30
2019-01-03T14:29:44.422Z,6.87
2019-01-03T14:31:55.267Z,7.50
2019-01-03T14:34:06.089Z,7.67
2019-01-03T14:36:16.940Z,7.87
2019-01-03T14:38:27.723Z,7.83
2019-01-03T14:40:38.552Z,7.93
2019-01-03T14:42:49.376Z,7.87
2019-01-03T14:45:00.291Z,7.83
2019-01-03T14:47:11.189Z,8.33
2019-01-03T14:49:21.993Z,7.63
2019-01-03T14:53:55.108Z,7.63
2019-01-03T14:56:05.915Z,8.13
2019-01-03T14:58:16.739Z,8.33
2019-01-03T15:00:27.562Z,8.43
2019-01-03T15:02:38.378Z,9.20
2019-01-03T15:04:49.181Z,8.43
2019-01-03T15:06:59.992Z,8.93
2019-01-03T15:09:10.956Z,8.27
2019-01-03T15:11:21.762Z,9.23
2019-01-03T15:13:32.589Z,9.63
2019-01-03T15:15:43.428Z,9.23
2019-01-03T15:17:54.272Z,8.67
2019-01-03T15:20:46.728Z,9.93
2019-01-03T15:22:57.594Z,10.43
2019-01-03T15:25:08.414Z,8.40
2019-01-03T15:27:19.228Z,8.97
2019-01-03T15:29:30.055Z,9.47
2019-01-03T15:31:40.971Z,9.17
2019-01-03T15:33:51.797Z,10.80
2019-01-03T15:36:02.631Z,10.40
2019-01-03T15:38:13.470Z,9.93
2019-01-03T15:40:24.304Z,9.77
2019-01-03T15:42:35.093Z,10.00
2019-01-03T15:44:45.944Z,11.03
2019-01-03T15:46:56.739Z,10.60
2019-01-03T15:49:07.546Z,12.00
2019-01-03T15:51:18.360Z,11.60
2019-01-03T15:53:29.167Z,12.03
2019-01-03T15:55:40.089Z,12.70
2019-01-03T15:57:50.896Z,12.57
2019-01-03T16:00:43.375Z,11.57
2019-01-03T16:02:54.179Z,11.17
2019-01-03T16:05:46.639Z,12.27
2019-01-03T16:07:57.455Z,11.53
2019-01-03T16:10:08.400Z,11.37
2019-01-03T16:12:19.215Z,11.73
2019-01-03T16:14:30.077Z,11.30
2019-01-03T16:16:40.876Z,13.03
2019-01-03T16:18:51.699Z,12.80
2019-01-03T16:21:02.550Z,12.00
2019-01-03T16:23:13.358Z,12.40
2019-01-03T16:25:24.178Z,12.30
2019-01-03T16:27:35.087Z,13.00
2019-01-03T16:29:45.912Z,14.83
2019-01-03T16:31:56.756Z,13.67
2019-01-03T16:34:07.573Z,16.00
2019-01-03T16:36:18.424Z,14.50
2019-01-03T16:38:29.225Z,14.03
2019-01-03T16:40:40.037Z,13.67
2019-01-03T16:42:50.865Z,13.30
2019-01-03T16:45:43.357Z,13.13
2019-01-03T16:47:54.155Z,13.97
2019-01-03T16:50:46.648Z,12.93
2019-01-03T16:52:57.485Z,12.30
2019-01-03T16:55:08.406Z,13.73
2019-01-03T16:57:19.246Z,12.07
2019-01-03T16:59:30.091Z,12.60
2019-01-03T17:01:40.908Z,12.87
2019-01-03T17:04:11.623Z,13.20
2019-01-03T17:09:14.710Z,12.20
2019-01-03T17:11:25.542Z,12.40
2019-01-03T17:13:36.377Z,14.57
2019-01-03T17:15:47.298Z,13.13
2019-01-03T17:17:58.135Z,12.63
2019-01-03T17:20:50.603Z,14.00
2019-01-03T17:23:01.459Z,13.33
2019-01-03T17:25:12.453Z,12.97
2019-01-03T17:27:23.273Z,12.87
2019-01-03T17:29:34.150Z,14.17
2019-01-03T17:31:44.948Z,14.03
2019-01-03T17:33:55.771Z,14.70
2019-01-03T17:36:06.579Z,13.60
2019-01-03T17:38:17.536Z,12.53
2019-01-03T17:40:28.358Z,13.83
2019-01-03T17:43:00.966Z,13.80
2019-01-03T17:45:11.764Z,12.40
2019-01-03T17:47:22.611Z,13.40
2019-01-03T17:49:33.449Z,13.40
2019-01-03T17:51:44.244Z,13.73
2019-01-03T17:53:55.143Z,13.80
2019-01-03T17:56:05.975Z,13.47
2019-01-03T17:58:16.956Z,13.90
2019-01-03T18:00:27.805Z,14.83
2019-01-03T18:02:38.610Z,14.07
2019-01-03T18:04:49.443Z,14.73
2019-01-03T18:07:00.240Z,16.50
2019-01-03T18:09:11.074Z,13.17
2019-01-03T18:11:21.881Z,14.20
2019-01-03T18:13:32.706Z,13.10
2019-01-03T18:15:43.671Z,15.23
2019-01-03T18:17:54.481Z,14.70
2019-01-03T18:20:47.087Z,13.97
2019-01-03T18:22:57.887Z,14.90
2019-01-03T18:25:08.744Z,15.83
2019-01-03T18:27:19.562Z,13.63
2019-01-03T18:29:30.509Z,13.87
2019-01-03T18:31:41.320Z,13.07
2019-01-03T18:33:52.101Z,13.33
2019-01-03T18:36:03.056Z,16.00
2019-01-03T18:38:13.853Z,16.30
2019-01-03T18:40:24.741Z,16.40
2019-01-03T18:42:35.551Z,14.20
2019-01-03T18:44:46.365Z,17.17
2019-01-03T18:46:57.220Z,16.63
2019-01-03T18:49:08.060Z,16.97
2019-01-03T18:51:18.892Z,13.93
2019-01-03T18:53:29.791Z,15.13
2019-01-03T18:55:40.665Z,18.33
2019-01-03T18:57:51.492Z,17.20
2019-01-03T19:00:43.991Z,17.47
2019-01-03T19:02:54.832Z,19.27
2019-01-03T19:05:05.648Z,20.63
2019-01-03T19:07:16.498Z,21.80
2019-01-03T19:09:27.330Z,20.30
2019-01-03T19:11:38.171Z,16.23
2019-01-03T19:13:48.976Z,15.37
2019-01-03T19:15:59.927Z,15.33
2019-01-03T19:18:10.755Z,17.77
2019-01-03T19:20:21.575Z,19.80
2019-01-03T19:22:32.461Z,20.70
2019-01-03T19:24:43.397Z,21.40
2019-01-03T19:26:54.197Z,22.10
2019-01-03T19:29:05.047Z,20.57
2019-01-03T19:31:15.850Z,18.13
2019-01-03T19:33:26.697Z,19.67
2019-01-03T19:35:37.542Z,21.07
2019-01-03T19:37:48.374Z,20.57
2019-01-03T19:39:59.181Z,19.77
2019-01-03T19:42:10.088Z,18.07
2019-01-03T19:44:20.951Z,19.60
2019-01-03T19:46:31.753Z,18.73
2019-01-03T19:48:42.584Z,18.27
2019-01-03T19:50:53.373Z,21.13
2019-01-03T19:53:04.350Z,19.97
2019-01-03T19:55:15.151Z,20.87
2019-01-03T19:57:25.991Z,19.27
2019-01-03T19:59:36.840Z,19.43
2019-01-03T20:01:47.765Z,18.50
2019-01-03T20:03:58.783Z,19.40
2019-01-03T20:06:09.606Z,19.77
2019-01-03T20:08:20.448Z,21.23
2019-01-03T20:10:31.330Z,21.83
2019-01-03T20:12:43.326Z,18.97
2019-01-03T20:14:55.013Z,20.30
2019-01-03T20:17:05.814Z,21.87
2019-01-03T20:19:16.643Z,22.33
2019-01-03T20:21:27.447Z,20.33
2019-01-03T20:23:38.376Z,18.67
2019-01-03T20:25:49.215Z,17.80
2019-01-03T20:28:00.080Z,17.97
2019-01-03T20:30:10.986Z,19.50
2019-01-03T20:32:21.896Z,20.93
2019-01-03T20:34:32.760Z,19.40
2019-01-03T20:36:43.760Z,18.50
2019-01-03T20:38:54.570Z,19.57
2019-01-03T20:41:05.537Z,18.80
2019-01-03T20:43:16.463Z,17.83
2019-01-03T20:45:27.406Z,17.10
2019-01-03T20:47:38.225Z,18.83
2019-01-03T20:49:49.091Z,18.10
2019-01-03T20:51:59.905Z,19.70
2019-01-03T20:54:10.716Z,16.10
2019-01-03T20:56:21.633Z,17.80
2019-01-03T20:58:32.467Z,19.47
2019-01-03T21:00:43.331Z,18.57
2019-01-03T21:02:54.172Z,19.07
2019-01-03T21:05:05.177Z,16.97
2019-01-03T21:07:16.104Z,17.10
2019-01-03T21:09:26.924Z,19.37
2019-01-03T21:11:37.781Z,18.90
2019-01-03T21:14:10.372Z,17.40
2019-01-03T21:16:21.200Z,15.47
2019-01-03T21:21:02.529Z,19.67
2019-01-03T21:23:13.360Z,20.10
2019-01-03T21:25:24.231Z,17.83
2019-01-03T21:27:35.044Z,18.07
2019-01-03T21:29:45.879Z,17.20
2019-01-03T21:31:56.671Z,17.77
2019-01-03T21:34:07.512Z,18.90
2019-01-03T21:36:18.341Z,19.70
2019-01-03T21:38:29.178Z,18.70
2019-01-03T21:40:39.984Z,17.77
2019-01-03T21:42:50.799Z,19.23
2019-01-03T21:45:01.625Z,16.53
2019-01-03T21:47:12.477Z,20.13
2019-01-03T21:49:23.303Z,18.10
2019-01-03T21:51:34.224Z,20.23
2019-01-03T21:53:45.059Z,20.13
2019-01-03T21:55:55.871Z,20.43
2019-01-03T21:58:06.882Z,19.37
2019-01-03T22:00:17.786Z,19.43
2019-01-03T22:02:28.626Z,20.50
2019-01-03T22:04:39.452Z,21.40
2019-01-03T22:06:50.266Z,20.27
2019-01-03T22:09:01.118Z,22.40
2019-01-03T22:11:12.152Z,20.83
2019-01-03T22:13:22.967Z,19.83
2019-01-03T22:15:33.899Z,19.67
2019-01-03T22:17:44.739Z,22.23
2019-01-03T22:19:55.557Z,21.10
2019-01-03T22:22:06.805Z,19.67
2019-01-03T22:24:17.624Z,20.07
2019-01-03T22:26:48.448Z,21.27
2019-01-03T22:28:59.360Z,19.80
2019-01-03T22:31:10.153Z,21.03
2019-01-03T22:33:20.959Z,21.37
2019-01-03T22:35:31.804Z,19.50
2019-01-03T22:37:42.603Z,20.83
2019-01-03T22:39:53.431Z,21.90
2019-01-03T22:42:04.329Z,20.67
2019-01-03T22:44:15.154Z,19.80
2019-01-03T22:46:25.969Z,22.00
2019-01-03T22:48:36.825Z,24.70
2019-01-03T22:50:47.643Z,20.53
2019-01-03T22:52:58.438Z,19.90
2019-01-03T22:55:09.297Z,20.67
2019-01-03T22:57:20.107Z,21.07
2019-01-03T22:59:30.965Z,24.53
2019-01-03T23:01:41.752Z,22.13
2019-01-03T23:03:52.653Z,22.33
2019-01-03T23:06:03.583Z,20.90
2019-01-03T23:08:14.391Z,23.83
2019-01-03T23:10:45.112Z,20.63
2019-01-03T23:12:55.921Z,24.53
2019-01-03T23:15:06.747Z,20.93
2019-01-03T23:17:17.596Z,21.47
2019-01-03T23:19:28.439Z,21.70
2019-01-03T23:21:39.265Z,22.83
2019-01-03T23:23:50.052Z,23.87
2019-01-03T23:28:19.580Z,24.57
2019-01-03T23:30:30.401Z,23.53
2019-01-03T23:33:01.124Z,21.97
2019-01-03T23:35:11.942Z,20.33
2019-01-03T23:37:22.767Z,19.80
2019-01-03T23:39:33.553Z,19.33
2019-01-03T23:41:44.386Z,18.97
2019-01-03T23:43:55.171Z,24.17
2019-01-03T23:46:05.971Z,22.20
2019-01-03T23:48:16.800Z,18.30
2019-01-03T23:50:49.380Z,19.30
2019-01-03T23:53:00.197Z,22.20
2019-01-03T23:55:11.107Z,22.73
2019-01-03T23:57:21.944Z,23.63
2019-01-03T23:59:32.738Z,22.43
